My Profile
  1. Member Settings
  2. My Devices
  3. Sign Out
        More Settings
      Elev 59 ft, 44.204 °N 27.316 °E

      Călărași, RO

      Summary

      Temperature (°F)MaxAverageMin
      Max Temperature9888.1976
      Avg Temperature85.0476.6570.33
      Min Temperature7464.8158
      Precipitation (in)MaxAverageMinSum
      Precipitation0.980.0802.51
      Dew Point (°F)MaxAverageMin
      Dew Point67.9662.8155.42
      Wind (mph)MaxAverageMin
      Wind209.724
      Gust Wind459.450
      Sea Level Pressure (in)MaxAverageMin
      Sea Level Pressure30.0529.8429.68

      Daily Observations

      DateTemp High/LowDew Pt High/LowHumidityWindMax WindWind GustPressurePrecip.Condition
      7/1/2021 92 °F / 69 °F 73 °F / 59 °F 63 % 9 mph - 29.72 in 0.03 in
      7/2/2021 82 °F / 67 °F 67 °F / 63 °F 76 % 11 mph - 29.72 in 0.08 in
      7/3/2021 79 °F / 64 °F 63 °F / 59 °F 72 % 7 mph - 29.73 in 0 in
      7/4/2021 83 °F / 62 °F 61 °F / 56 °F 64 % 9 mph - 29.72 in 0 in
      7/5/2021 79 °F / 64 °F 66 °F / 58 °F 73 % 7 mph - 29.7 in 0.02 in
      7/6/2021 85 °F / 68 °F 70 °F / 63 °F 80 % 11 mph - 29.73 in 0.52 in
      7/7/2021 87 °F / 67 °F 69 °F / 65 °F 71 % 9 mph - 29.89 in 0 in
      7/8/2021 83 °F / 66 °F 72 °F / 65 °F 84 % 18 mph - 30.04 in 0.44 in
      7/9/2021 88 °F / 66 °F 69 °F / 60 °F 71 % 9 mph - 30.05 in 0 in
      7/10/2021 88 °F / 58 °F 66 °F / 56 °F 65 % 7 mph - 29.95 in 0 in
      7/11/2021 88 °F / 65 °F 66 °F / 60 °F 70 % 9 mph - 29.87 in 0 in
      7/12/2021 90 °F / 66 °F 67 °F / 60 °F 67 % 7 mph - 29.87 in 0 in
      7/13/2021 91 °F / 65 °F 69 °F / 60 °F 67 % 4 mph - 29.86 in 0 in
      7/14/2021 90 °F / 66 °F 68 °F / 61 °F 68 % 11 mph - 29.9 in 0 in
      7/15/2021 91 °F / 63 °F 67 °F / 56 °F 61 % 7 mph - 29.86 in 0 in
      7/16/2021 93 °F / 66 °F 71 °F / 57 °F 67 % 11 mph - 29.8 in 0 in
      7/17/2021 94 °F / 63 °F 65 °F / 59 °F 59 % 13 mph - 29.72 in 0 in
      7/18/2021 94 °F / 64 °F 70 °F / 59 °F 64 % 11 mph - 29.68 in 0 in
      7/19/2021 93 °F / 66 °F 70 °F / 65 °F 69 % 11 mph - 29.69 in 0 in
      7/20/2021 88 °F / 68 °F 70 °F / 64 °F 71 % 9 mph - 29.69 in 0 in
      7/21/2021 86 °F / 62 °F 67 °F / 58 °F 70 % 13 mph - 29.79 in 0.44 in
      7/22/2021 83 °F / 62 °F 61 °F / 55 °F 61 % 11 mph - 29.92 in 0 in
      7/23/2021 83 °F / 60 °F 59 °F / 52 °F 60 % 9 mph - 29.92 in 0 in
      7/24/2021 84 °F / 59 °F 63 °F / 53 °F 61 % 7 mph - 29.93 in 0 in
      7/25/2021 86 °F / 58 °F 61 °F / 54 °F 62 % 7 mph - 29.97 in 0 in
      7/26/2021 89 °F / 60 °F 64 °F / 50 °F 60 % 4 mph - 30.01 in 0 in
      7/27/2021 93 °F / 63 °F 65 °F / 55 °F 55 % 7 mph - 30 in 0 in
      7/28/2021 98 °F / 68 °F 68 °F / 59 °F 50 % 7 mph - 29.92 in 0 in
      7/29/2021 98 °F / 72 °F 69 °F / 55 °F 50 % 13 mph - 29.83 in 0 in
      7/30/2021 93 °F / 70 °F 70 °F / 64 °F 63 % 9 mph - 29.78 in 0 in
      7/31/2021 95 °F / 68 °F 72 °F / 62 °F 67 % 20 mph - 29.75 in 0.98 in
      essentialaccessibility.com
      We recognize our responsibility to use data and technology for good. We may use or share your data with our data vendors. Take control of your data.
      Glossary